sensor_id;sensor_type;location;lat;lon;timestamp;P1;durP1;ratioP1;P2;durP2;ratioP2
44189;SDS011;29856;52.144;5.430;2023-02-23T00:01:38;59.35;;;37.53;;
44189;SDS011;29856;52.144;5.430;2023-02-23T00:04:05;53.42;;;34.25;;
44189;SDS011;29856;52.144;5.430;2023-02-23T00:06:32;60.97;;;37.88;;
44189;SDS011;29856;52.144;5.430;2023-02-23T00:08:59;60.28;;;37.53;;
44189;SDS011;29856;52.144;5.430;2023-02-23T00:11:24;66.18;;;40.30;;
44189;SDS011;29856;52.144;5.430;2023-02-23T00:13:49;54.70;;;33.97;;
44189;SDS011;29856;52.144;5.430;2023-02-23T00:16:16;59.38;;;35.95;;
44189;SDS011;29856;52.144;5.430;2023-02-23T00:18:50;66.38;;;40.60;;
44189;SDS011;29856;52.144;5.430;2023-02-23T00:21:26;67.68;;;42.28;;
44189;SDS011;29856;52.144;5.430;2023-02-23T00:23:54;55.33;;;34.78;;
44189;SDS011;29856;52.144;5.430;2023-02-23T00:26:23;58.72;;;37.72;;
44189;SDS011;29856;52.144;5.430;2023-02-23T00:28:51;66.82;;;41.33;;
44189;SDS011;29856;52.144;5.430;2023-02-23T00:31:17;55.75;;;35.40;;
44189;SDS011;29856;52.144;5.430;2023-02-23T00:33:46;66.97;;;41.70;;
44189;SDS011;29856;52.144;5.430;2023-02-23T00:36:13;66.78;;;42.80;;
44189;SDS011;29856;52.144;5.430;2023-02-23T00:38:39;59.17;;;35.97;;
44189;SDS011;29856;52.144;5.430;2023-02-23T00:43:32;64.32;;;40.40;;
44189;SDS011;29856;52.144;5.430;2023-02-23T00:45:59;71.30;;;41.45;;
44189;SDS011;29856;52.144;5.430;2023-02-23T00:48:24;73.43;;;44.53;;
44189;SDS011;29856;52.144;5.430;2023-02-23T00:50:56;75.32;;;44.08;;
44189;SDS011;29856;52.144;5.430;2023-02-23T00:53:42;72.32;;;43.45;;
44189;SDS011;29856;52.144;5.430;2023-02-23T00:56:09;71.63;;;43.58;;
44189;SDS011;29856;52.144;5.430;2023-02-23T00:58:37;74.80;;;43.00;;
44189;SDS011;29856;52.144;5.430;2023-02-23T01:01:06;76.20;;;44.30;;
44189;SDS011;29856;52.144;5.430;2023-02-23T01:03:33;74.50;;;44.85;;
44189;SDS011;29856;52.144;5.430;2023-02-23T01:06:00;56.05;;;34.03;;
44189;SDS011;29856;52.144;5.430;2023-02-23T01:08:27;67.35;;;41.40;;
44189;SDS011;29856;52.144;5.430;2023-02-23T01:10:53;74.35;;;45.22;;
44189;SDS011;29856;52.144;5.430;2023-02-23T01:13:19;73.57;;;44.63;;
44189;SDS011;29856;52.144;5.430;2023-02-23T01:15:45;76.55;;;46.30;;
44189;SDS011;29856;52.144;5.430;2023-02-23T01:18:12;84.65;;;49.67;;
44189;SDS011;29856;52.144;5.430;2023-02-23T01:20:39;78.90;;;45.67;;
44189;SDS011;29856;52.144;5.430;2023-02-23T01:23:05;73.53;;;43.10;;
44189;SDS011;29856;52.144;5.430;2023-02-23T01:25:31;71.10;;;40.97;;
44189;SDS011;29856;52.144;5.430;2023-02-23T01:27:57;76.97;;;44.70;;
44189;SDS011;29856;52.144;5.430;2023-02-23T01:30:22;80.20;;;48.55;;
44189;SDS011;29856;52.144;5.430;2023-02-23T01:32:48;80.32;;;45.05;;
44189;SDS011;29856;52.144;5.430;2023-02-23T01:35:13;81.07;;;46.92;;
44189;SDS011;29856;52.144;5.430;2023-02-23T01:37:40;65.93;;;38.25;;
44189;SDS011;29856;52.144;5.430;2023-02-23T01:40:11;70.75;;;40.83;;
44189;SDS011;29856;52.144;5.430;2023-02-23T01:42:40;75.10;;;45.65;;
44189;SDS011;29856;52.144;5.430;2023-02-23T01:47:55;71.35;;;43.17;;
44189;SDS011;29856;52.144;5.430;2023-02-23T01:50:24;71.40;;;43.10;;
44189;SDS011;29856;52.144;5.430;2023-02-23T01:52:51;51.60;;;32.50;;
44189;SDS011;29856;52.144;5.430;2023-02-23T01:55:18;68.70;;;39.88;;
44189;SDS011;29856;52.144;5.430;2023-02-23T01:57:45;71.47;;;42.95;;
44189;SDS011;29856;52.144;5.430;2023-02-23T02:00:11;81.10;;;47.75;;
44189;SDS011;29856;52.144;5.430;2023-02-23T02:02:37;64.43;;;40.10;;
44189;SDS011;29856;52.144;5.430;2023-02-23T02:05:03;70.95;;;43.35;;
44189;SDS011;29856;52.144;5.430;2023-02-23T02:07:29;63.80;;;39.83;;
44189;SDS011;29856;52.144;5.430;2023-02-23T02:09:57;75.53;;;45.42;;
44189;SDS011;29856;52.144;5.430;2023-02-23T02:12:23;75.53;;;45.30;;
44189;SDS011;29856;52.144;5.430;2023-02-23T02:14:48;79.28;;;45.15;;
44189;SDS011;29856;52.144;5.430;2023-02-23T02:28:45;78.63;;;47.53;;
44189;SDS011;29856;52.144;5.430;2023-02-23T02:34:13;58.05;;;36.58;;
44189;SDS011;29856;52.144;5.430;2023-02-23T02:42:19;53.78;;;33.45;;
44189;SDS011;29856;52.144;5.430;2023-02-23T02:45:20;63.53;;;38.92;;
44189;SDS011;29856;52.144;5.430;2023-02-23T02:47:59;62.83;;;40.03;;
44189;SDS011;29856;52.144;5.430;2023-02-23T02:53:06;72.70;;;42.78;;
44189;SDS011;29856;52.144;5.430;2023-02-23T02:55:35;58.63;;;37.20;;
44189;SDS011;29856;52.144;5.430;2023-02-23T02:58:04;52.00;;;33.55;;
44189;SDS011;29856;52.144;5.430;2023-02-23T03:00:39;71.63;;;43.30;;
44189;SDS011;29856;52.144;5.430;2023-02-23T03:03:09;63.45;;;39.50;;
44189;SDS011;29856;52.144;5.430;2023-02-23T03:05:52;62.95;;;39.10;;
44189;SDS011;29856;52.144;5.430;2023-02-23T03:08:23;60.78;;;37.45;;
44189;SDS011;29856;52.144;5.430;2023-02-23T03:11:07;57.50;;;36.63;;
44189;SDS011;29856;52.144;5.430;2023-02-23T03:13:42;57.40;;;36.25;;
44189;SDS011;29856;52.144;5.430;2023-02-23T03:19:05;61.65;;;37.92;;
44189;SDS011;29856;52.144;5.430;2023-02-23T03:21:53;76.00;;;44.83;;
44189;SDS011;29856;52.144;5.430;2023-02-23T03:24:39;77.38;;;46.50;;
44189;SDS011;29856;52.144;5.430;2023-02-23T03:27:22;80.13;;;46.90;;
44189;SDS011;29856;52.144;5.430;2023-02-23T03:32:29;74.10;;;42.42;;
44189;SDS011;29856;52.144;5.430;2023-02-23T03:37:34;69.93;;;40.50;;
44189;SDS011;29856;52.144;5.430;2023-02-23T03:42:47;77.10;;;45.85;;
44189;SDS011;29856;52.144;5.430;2023-02-23T03:45:16;61.70;;;38.33;;
44189;SDS011;29856;52.144;5.430;2023-02-23T03:47:44;68.10;;;40.88;;
44189;SDS011;29856;52.144;5.430;2023-02-23T03:50:29;73.68;;;44.08;;
44189;SDS011;29856;52.144;5.430;2023-02-23T03:53:00;71.43;;;45.20;;
44189;SDS011;29856;52.144;5.430;2023-02-23T03:55:29;70.68;;;42.00;;
44189;SDS011;29856;52.144;5.430;2023-02-23T03:57:57;62.80;;;37.85;;
44189;SDS011;29856;52.144;5.430;2023-02-23T04:00:29;66.40;;;39.55;;
44189;SDS011;29856;52.144;5.430;2023-02-23T04:02:58;75.50;;;42.88;;
44189;SDS011;29856;52.144;5.430;2023-02-23T04:05:25;79.20;;;45.05;;
44189;SDS011;29856;52.144;5.430;2023-02-23T04:07:53;74.53;;;42.88;;
44189;SDS011;29856;52.144;5.430;2023-02-23T04:10:19;60.42;;;38.15;;
44189;SDS011;29856;52.144;5.430;2023-02-23T04:13:04;62.50;;;39.65;;
44189;SDS011;29856;52.144;5.430;2023-02-23T04:15:35;82.53;;;47.90;;
44189;SDS011;29856;52.144;5.430;2023-02-23T04:18:21;67.00;;;40.17;;
44189;SDS011;29856;52.144;5.430;2023-02-23T04:20:49;62.97;;;38.88;;
44189;SDS011;29856;52.144;5.430;2023-02-23T04:23:15;67.97;;;41.10;;
44189;SDS011;29856;52.144;5.430;2023-02-23T04:25:41;60.30;;;37.28;;
44189;SDS011;29856;52.144;5.430;2023-02-23T04:28:06;59.72;;;37.03;;
44189;SDS011;29856;52.144;5.430;2023-02-23T04:30:32;60.33;;;38.42;;
44189;SDS011;29856;52.144;5.430;2023-02-23T04:32:57;74.13;;;42.80;;
44189;SDS011;29856;52.144;5.430;2023-02-23T04:35:23;57.92;;;36.42;;
44189;SDS011;29856;52.144;5.430;2023-02-23T04:37:48;60.92;;;36.22;;
44189;SDS011;29856;52.144;5.430;2023-02-23T04:40:14;59.50;;;37.72;;
44189;SDS011;29856;52.144;5.430;2023-02-23T04:42:39;58.05;;;36.05;;
44189;SDS011;29856;52.144;5.430;2023-02-23T04:45:05;55.45;;;35.42;;
44189;SDS011;29856;52.144;5.430;2023-02-23T04:47:32;66.95;;;40.00;;
44189;SDS011;29856;52.144;5.430;2023-02-23T04:49:57;63.67;;;39.50;;
44189;SDS011;29856;52.144;5.430;2023-02-23T04:52:23;66.72;;;39.25;;
44189;SDS011;29856;52.144;5.430;2023-02-23T04:54:48;83.65;;;47.25;;
44189;SDS011;29856;52.144;5.430;2023-02-23T04:57:14;77.80;;;43.50;;
44189;SDS011;29856;52.144;5.430;2023-02-23T04:59:39;78.35;;;44.90;;
44189;SDS011;29856;52.144;5.430;2023-02-23T05:02:05;72.72;;;43.05;;
44189;SDS011;29856;52.144;5.430;2023-02-23T05:04:31;76.18;;;43.95;;
44189;SDS011;29856;52.144;5.430;2023-02-23T05:06:57;71.72;;;41.60;;
44189;SDS011;29856;52.144;5.430;2023-02-23T05:09:22;76.55;;;44.30;;
44189;SDS011;29856;52.144;5.430;2023-02-23T05:11:48;71.88;;;43.05;;
44189;SDS011;29856;52.144;5.430;2023-02-23T05:14:13;68.25;;;41.33;;
44189;SDS011;29856;52.144;5.430;2023-02-23T05:16:38;69.07;;;40.28;;
44189;SDS011;29856;52.144;5.430;2023-02-23T05:19:04;81.75;;;47.53;;
44189;SDS011;29856;52.144;5.430;2023-02-23T05:21:30;65.68;;;39.95;;
44189;SDS011;29856;52.144;5.430;2023-02-23T05:23:55;73.20;;;42.58;;
44189;SDS011;29856;52.144;5.430;2023-02-23T05:26:21;74.15;;;43.78;;
44189;SDS011;29856;52.144;5.430;2023-02-23T05:28:46;73.68;;;41.33;;
44189;SDS011;29856;52.144;5.430;2023-02-23T05:31:12;79.43;;;45.88;;
44189;SDS011;29856;52.144;5.430;2023-02-23T05:33:38;83.20;;;45.55;;
44189;SDS011;29856;52.144;5.430;2023-02-23T05:36:03;67.22;;;38.67;;
44189;SDS011;29856;52.144;5.430;2023-02-23T05:38:29;78.32;;;45.97;;
44189;SDS011;29856;52.144;5.430;2023-02-23T05:40:55;73.43;;;42.78;;
44189;SDS011;29856;52.144;5.430;2023-02-23T05:43:20;71.95;;;42.10;;
44189;SDS011;29856;52.144;5.430;2023-02-23T05:45:46;83.78;;;46.65;;
44189;SDS011;29856;52.144;5.430;2023-02-23T05:48:11;66.43;;;39.55;;
44189;SDS011;29856;52.144;5.430;2023-02-23T05:50:37;86.90;;;47.78;;
44189;SDS011;29856;52.144;5.430;2023-02-23T05:53:03;69.85;;;39.70;;
44189;SDS011;29856;52.144;5.430;2023-02-23T05:55:28;82.50;;;45.33;;
44189;SDS011;29856;52.144;5.430;2023-02-23T05:57:54;90.78;;;47.47;;
44189;SDS011;29856;52.144;5.430;2023-02-23T06:00:20;78.80;;;46.15;;
44189;SDS011;29856;52.144;5.430;2023-02-23T06:02:45;83.38;;;46.10;;
44189;SDS011;29856;52.144;5.430;2023-02-23T06:05:11;85.00;;;46.80;;
44189;SDS011;29856;52.144;5.430;2023-02-23T06:07:37;80.40;;;44.80;;
44189;SDS011;29856;52.144;5.430;2023-02-23T06:10:03;79.53;;;45.20;;
44189;SDS011;29856;52.144;5.430;2023-02-23T06:12:29;85.10;;;46.30;;
44189;SDS011;29856;52.144;5.430;2023-02-23T06:14:54;81.03;;;44.40;;
44189;SDS011;29856;52.144;5.430;2023-02-23T06:17:20;87.13;;;46.65;;
44189;SDS011;29856;52.144;5.430;2023-02-23T06:19:45;76.22;;;42.35;;
44189;SDS011;29856;52.144;5.430;2023-02-23T06:22:11;84.43;;;44.95;;
44189;SDS011;29856;52.144;5.430;2023-02-23T06:24:36;80.50;;;43.90;;
44189;SDS011;29856;52.144;5.430;2023-02-23T06:27:02;73.95;;;41.58;;
44189;SDS011;29856;52.144;5.430;2023-02-23T06:29:27;80.13;;;42.90;;
44189;SDS011;29856;52.144;5.430;2023-02-23T06:31:54;77.07;;;41.67;;
44189;SDS011;29856;52.144;5.430;2023-02-23T06:34:19;73.95;;;39.45;;
44189;SDS011;29856;52.144;5.430;2023-02-23T06:36:45;67.85;;;39.55;;
44189;SDS011;29856;52.144;5.430;2023-02-23T06:39:10;67.85;;;36.60;;
44189;SDS011;29856;52.144;5.430;2023-02-23T06:41:36;57.38;;;35.60;;
44189;SDS011;29856;52.144;5.430;2023-02-23T06:44:02;73.47;;;41.47;;
44189;SDS011;29856;52.144;5.430;2023-02-23T06:46:28;70.60;;;39.55;;
44189;SDS011;29856;52.144;5.430;2023-02-23T06:48:54;72.95;;;41.15;;
44189;SDS011;29856;52.144;5.430;2023-02-23T06:51:21;72.35;;;43.17;;
44189;SDS011;29856;52.144;5.430;2023-02-23T06:53:47;74.75;;;42.95;;
44189;SDS011;29856;52.144;5.430;2023-02-23T06:56:12;64.10;;;37.95;;
44189;SDS011;29856;52.144;5.430;2023-02-23T06:58:41;75.70;;;42.33;;
44189;SDS011;29856;52.144;5.430;2023-02-23T07:01:07;75.63;;;43.50;;
44189;SDS011;29856;52.144;5.430;2023-02-23T07:03:32;70.55;;;40.05;;
44189;SDS011;29856;52.144;5.430;2023-02-23T07:05:58;71.53;;;40.33;;
44189;SDS011;29856;52.144;5.430;2023-02-23T07:08:23;67.80;;;39.15;;
44189;SDS011;29856;52.144;5.430;2023-02-23T07:10:49;66.05;;;38.60;;
44189;SDS011;29856;52.144;5.430;2023-02-23T07:13:14;70.68;;;41.40;;
44189;SDS011;29856;52.144;5.430;2023-02-23T07:15:40;78.57;;;42.38;;
44189;SDS011;29856;52.144;5.430;2023-02-23T07:18:06;67.60;;;39.42;;
44189;SDS011;29856;52.144;5.430;2023-02-23T07:20:32;73.13;;;42.25;;
44189;SDS011;29856;52.144;5.430;2023-02-23T07:22:58;70.22;;;41.40;;
44189;SDS011;29856;52.144;5.430;2023-02-23T07:25:24;72.53;;;41.58;;
44189;SDS011;29856;52.144;5.430;2023-02-23T07:27:50;62.85;;;37.38;;
44189;SDS011;29856;52.144;5.430;2023-02-23T07:30:15;82.72;;;45.47;;
44189;SDS011;29856;52.144;5.430;2023-02-23T07:32:41;81.22;;;43.92;;
44189;SDS011;29856;52.144;5.430;2023-02-23T07:35:06;81.43;;;42.78;;
44189;SDS011;29856;52.144;5.430;2023-02-23T07:37:32;75.53;;;41.10;;
44189;SDS011;29856;52.144;5.430;2023-02-23T07:39:58;81.72;;;44.58;;
44189;SDS011;29856;52.144;5.430;2023-02-23T07:42:23;77.72;;;42.70;;
44189;SDS011;29856;52.144;5.430;2023-02-23T07:44:49;78.47;;;43.53;;
44189;SDS011;29856;52.144;5.430;2023-02-23T07:47:14;83.10;;;44.65;;
44189;SDS011;29856;52.144;5.430;2023-02-23T07:49:40;77.10;;;43.13;;
44189;SDS011;29856;52.144;5.430;2023-02-23T07:52:05;82.05;;;44.97;;
44189;SDS011;29856;52.144;5.430;2023-02-23T07:54:31;84.53;;;44.88;;
44189;SDS011;29856;52.144;5.430;2023-02-23T07:56:56;77.90;;;41.70;;
44189;SDS011;29856;52.144;5.430;2023-02-23T07:59:21;84.20;;;45.67;;
44189;SDS011;29856;52.144;5.430;2023-02-23T08:01:47;83.97;;;46.92;;
44189;SDS011;29856;52.144;5.430;2023-02-23T08:04:12;83.15;;;45.97;;
44189;SDS011;29856;52.144;5.430;2023-02-23T08:06:38;80.13;;;44.50;;
44189;SDS011;29856;52.144;5.430;2023-02-23T08:09:04;86.72;;;49.55;;
44189;SDS011;29856;52.144;5.430;2023-02-23T08:11:29;85.13;;;45.53;;
44189;SDS011;29856;52.144;5.430;2023-02-23T08:13:55;96.85;;;49.97;;
44189;SDS011;29856;52.144;5.430;2023-02-23T08:16:21;89.93;;;48.08;;
44189;SDS011;29856;52.144;5.430;2023-02-23T08:18:47;81.95;;;44.95;;
44189;SDS011;29856;52.144;5.430;2023-02-23T08:21:12;86.70;;;44.63;;
44189;SDS011;29856;52.144;5.430;2023-02-23T08:23:37;67.90;;;37.17;;
44189;SDS011;29856;52.144;5.430;2023-02-23T08:26:03;80.32;;;43.20;;
44189;SDS011;29856;52.144;5.430;2023-02-23T08:28:29;63.03;;;36.05;;
44189;SDS011;29856;52.144;5.430;2023-02-23T08:30:55;76.53;;;41.22;;
44189;SDS011;29856;52.144;5.430;2023-02-23T08:33:21;78.32;;;42.00;;
44189;SDS011;29856;52.144;5.430;2023-02-23T08:35:47;74.13;;;41.92;;
44189;SDS011;29856;52.144;5.430;2023-02-23T08:38:12;67.20;;;39.78;;
44189;SDS011;29856;52.144;5.430;2023-02-23T08:40:37;79.03;;;40.63;;
44189;SDS011;29856;52.144;5.430;2023-02-23T08:43:03;78.13;;;40.83;;
44189;SDS011;29856;52.144;5.430;2023-02-23T08:45:28;74.88;;;40.88;;
44189;SDS011;29856;52.144;5.430;2023-02-23T08:47:54;76.03;;;41.17;;
44189;SDS011;29856;52.144;5.430;2023-02-23T08:50:20;70.80;;;38.58;;
44189;SDS011;29856;52.144;5.430;2023-02-23T08:52:46;76.05;;;40.08;;
44189;SDS011;29856;52.144;5.430;2023-02-23T08:55:11;75.03;;;38.78;;
44189;SDS011;29856;52.144;5.430;2023-02-23T08:57:37;70.18;;;38.20;;
44189;SDS011;29856;52.144;5.430;2023-02-23T09:00:03;74.53;;;38.55;;
44189;SDS011;29856;52.144;5.430;2023-02-23T09:02:29;74.78;;;38.95;;
44189;SDS011;29856;52.144;5.430;2023-02-23T09:04:55;70.45;;;34.85;;
44189;SDS011;29856;52.144;5.430;2023-02-23T09:07:20;70.68;;;37.72;;
44189;SDS011;29856;52.144;5.430;2023-02-23T09:09:51;84.03;;;37.72;;
44189;SDS011;29856;52.144;5.430;2023-02-23T09:12:18;70.50;;;36.55;;
44189;SDS011;29856;52.144;5.430;2023-02-23T09:14:44;75.97;;;36.28;;
44189;SDS011;29856;52.144;5.430;2023-02-23T09:17:09;67.38;;;34.92;;
44189;SDS011;29856;52.144;5.430;2023-02-23T09:19:34;64.80;;;33.17;;
44189;SDS011;29856;52.144;5.430;2023-02-23T09:22:00;57.13;;;31.27;;
44189;SDS011;29856;52.144;5.430;2023-02-23T09:24:25;62.88;;;31.67;;
44189;SDS011;29856;52.144;5.430;2023-02-23T09:26:51;67.95;;;34.97;;
44189;SDS011;29856;52.144;5.430;2023-02-23T09:29:16;60.63;;;31.55;;
44189;SDS011;29856;52.144;5.430;2023-02-23T09:31:42;56.25;;;26.17;;
44189;SDS011;29856;52.144;5.430;2023-02-23T09:34:07;49.13;;;26.58;;
44189;SDS011;29856;52.144;5.430;2023-02-23T09:36:33;58.20;;;30.95;;
44189;SDS011;29856;52.144;5.430;2023-02-23T09:38:58;60.75;;;30.67;;
44189;SDS011;29856;52.144;5.430;2023-02-23T09:46:28;53.40;;;27.55;;
44189;SDS011;29856;52.144;5.430;2023-02-23T09:48:57;57.28;;;28.45;;
44189;SDS011;29856;52.144;5.430;2023-02-23T09:51:26;54.78;;;28.35;;
44189;SDS011;29856;52.144;5.430;2023-02-23T09:53:54;56.15;;;27.95;;
44189;SDS011;29856;52.144;5.430;2023-02-23T09:56:26;58.25;;;28.10;;
44189;SDS011;29856;52.144;5.430;2023-02-23T09:58:58;47.88;;;22.85;;
44189;SDS011;29856;52.144;5.430;2023-02-23T10:01:36;51.90;;;28.20;;
44189;SDS011;29856;52.144;5.430;2023-02-23T10:04:11;58.00;;;27.85;;
44189;SDS011;29856;52.144;5.430;2023-02-23T10:18:00;55.83;;;29.17;;
44189;SDS011;29856;52.144;5.430;2023-02-23T10:26:20;48.65;;;24.05;;
44189;SDS011;29856;52.144;5.430;2023-02-23T10:28:48;45.47;;;24.83;;
44189;SDS011;29856;52.144;5.430;2023-02-23T10:34:03;48.88;;;25.08;;
44189;SDS011;29856;52.144;5.430;2023-02-23T10:36:50;49.88;;;23.13;;
44189;SDS011;29856;52.144;5.430;2023-02-23T10:39:21;51.70;;;26.45;;
44189;SDS011;29856;52.144;5.430;2023-02-23T10:41:47;52.75;;;25.95;;
44189;SDS011;29856;52.144;5.430;2023-02-23T10:44:20;49.70;;;25.15;;
44189;SDS011;29856;52.144;5.430;2023-02-23T10:46:54;49.40;;;25.05;;
44189;SDS011;29856;52.144;5.430;2023-02-23T10:49:26;50.75;;;25.00;;
44189;SDS011;29856;52.144;5.430;2023-02-23T10:52:07;46.53;;;23.60;;
44189;SDS011;29856;52.144;5.430;2023-02-23T10:54:39;47.90;;;22.35;;
44189;SDS011;29856;52.144;5.430;2023-02-23T10:57:06;42.13;;;22.08;;
44189;SDS011;29856;52.144;5.430;2023-02-23T10:59:33;42.10;;;21.77;;
44189;SDS011;29856;52.144;5.430;2023-02-23T11:01:59;42.63;;;23.55;;
44189;SDS011;29856;52.144;5.430;2023-02-23T11:04:49;45.78;;;23.52;;
44189;SDS011;29856;52.144;5.430;2023-02-23T11:07:21;40.80;;;21.48;;
44189;SDS011;29856;52.144;5.430;2023-02-23T11:09:49;44.13;;;20.95;;
44189;SDS011;29856;52.144;5.430;2023-02-23T11:12:19;38.88;;;19.45;;
44189;SDS011;29856;52.144;5.430;2023-02-23T11:14:47;35.90;;;19.60;;
44189;SDS011;29856;52.144;5.430;2023-02-23T11:17:25;36.22;;;19.80;;
44189;SDS011;29856;52.144;5.430;2023-02-23T11:20:04;35.15;;;19.38;;
44189;SDS011;29856;52.144;5.430;2023-02-23T11:22:42;38.38;;;20.70;;
44189;SDS011;29856;52.144;5.430;2023-02-23T11:25:13;34.80;;;16.80;;
44189;SDS011;29856;52.144;5.430;2023-02-23T11:27:47;35.40;;;17.15;;
44189;SDS011;29856;52.144;5.430;2023-02-23T11:30:14;32.53;;;18.80;;
44189;SDS011;29856;52.144;5.430;2023-02-23T11:32:39;39.30;;;21.33;;
44189;SDS011;29856;52.144;5.430;2023-02-23T11:37:47;31.08;;;16.88;;
44189;SDS011;29856;52.144;5.430;2023-02-23T11:40:18;29.48;;;13.60;;
44189;SDS011;29856;52.144;5.430;2023-02-23T11:42:54;34.63;;;17.02;;
44189;SDS011;29856;52.144;5.430;2023-02-23T11:45:22;33.22;;;16.98;;
44189;SDS011;29856;52.144;5.430;2023-02-23T11:47:50;33.97;;;15.80;;
44189;SDS011;29856;52.144;5.430;2023-02-23T11:52:54;34.33;;;17.00;;
44189;SDS011;29856;52.144;5.430;2023-02-23T11:55:23;32.67;;;18.10;;
44189;SDS011;29856;52.144;5.430;2023-02-23T11:57:49;38.80;;;18.98;;
44189;SDS011;29856;52.144;5.430;2023-02-23T12:00:22;36.30;;;19.02;;
44189;SDS011;29856;52.144;5.430;2023-02-23T12:02:51;37.95;;;19.48;;
44189;SDS011;29856;52.144;5.430;2023-02-23T12:05:23;41.72;;;19.45;;
44189;SDS011;29856;52.144;5.430;2023-02-23T12:08:09;45.88;;;19.67;;
44189;SDS011;29856;52.144;5.430;2023-02-23T12:10:46;35.83;;;18.63;;
44189;SDS011;29856;52.144;5.430;2023-02-23T12:13:30;37.92;;;19.83;;
44189;SDS011;29856;52.144;5.430;2023-02-23T12:18:59;43.55;;;18.02;;
44189;SDS011;29856;52.144;5.430;2023-02-23T12:21:31;35.42;;;17.75;;
44189;SDS011;29856;52.144;5.430;2023-02-23T12:24:22;39.60;;;19.25;;
44189;SDS011;29856;52.144;5.430;2023-02-23T12:27:00;43.30;;;21.13;;
44189;SDS011;29856;52.144;5.430;2023-02-23T12:29:36;44.55;;;19.95;;
44189;SDS011;29856;52.144;5.430;2023-02-23T12:32:27;31.23;;;14.88;;
44189;SDS011;29856;52.144;5.430;2023-02-23T12:37:44;42.33;;;20.75;;
44189;SDS011;29856;52.144;5.430;2023-02-23T12:40:34;36.78;;;18.90;;
44189;SDS011;29856;52.144;5.430;2023-02-23T12:45:53;33.88;;;17.88;;
44189;SDS011;29856;52.144;5.430;2023-02-23T12:51:57;39.95;;;19.17;;
44189;SDS011;29856;52.144;5.430;2023-02-23T12:54:25;40.08;;;17.42;;
44189;SDS011;29856;52.144;5.430;2023-02-23T12:59:44;37.40;;;19.45;;
44189;SDS011;29856;52.144;5.430;2023-02-23T13:02:38;32.92;;;18.20;;
44189;SDS011;29856;52.144;5.430;2023-02-23T13:05:26;37.72;;;18.60;;
44189;SDS011;29856;52.144;5.430;2023-02-23T13:13:48;29.70;;;17.13;;
44189;SDS011;29856;52.144;5.430;2023-02-23T13:16:34;32.42;;;16.77;;
44189;SDS011;29856;52.144;5.430;2023-02-23T13:24:57;29.92;;;15.30;;
44189;SDS011;29856;52.144;5.430;2023-02-23T13:27:35;30.83;;;15.35;;
44189;SDS011;29856;52.144;5.430;2023-02-23T13:30:10;28.77;;;14.77;;
44189;SDS011;29856;52.144;5.430;2023-02-23T13:32:36;27.30;;;15.32;;
44189;SDS011;29856;52.144;5.430;2023-02-23T13:35:03;30.98;;;16.55;;
44189;SDS011;29856;52.144;5.430;2023-02-23T13:37:39;29.77;;;16.42;;
44189;SDS011;29856;52.144;5.430;2023-02-23T13:40:34;27.13;;;15.85;;
44189;SDS011;29856;52.144;5.430;2023-02-23T13:43:02;33.35;;;17.25;;
44189;SDS011;29856;52.144;5.430;2023-02-23T13:45:51;32.47;;;17.27;;
44189;SDS011;29856;52.144;5.430;2023-02-23T13:56:42;31.73;;;16.08;;
44189;SDS011;29856;52.144;5.430;2023-02-23T13:59:23;31.88;;;16.65;;
44189;SDS011;29856;52.144;5.430;2023-02-23T14:01:51;29.45;;;15.38;;
44189;SDS011;29856;52.144;5.430;2023-02-23T14:04:25;31.95;;;16.75;;
44189;SDS011;29856;52.144;5.430;2023-02-23T14:09:30;32.03;;;15.75;;
44189;SDS011;29856;52.144;5.430;2023-02-23T14:15:41;27.55;;;13.93;;
44189;SDS011;29856;52.144;5.430;2023-02-23T14:18:00;32.38;;;15.02;;
44189;SDS011;29856;52.144;5.430;2023-02-23T14:29:26;30.77;;;14.38;;
44189;SDS011;29856;52.144;5.430;2023-02-23T14:37:18;37.60;;;18.42;;
44189;SDS011;29856;52.144;5.430;2023-02-23T14:39:53;37.13;;;18.30;;
44189;SDS011;29856;52.144;5.430;2023-02-23T14:42:22;41.97;;;19.67;;
44189;SDS011;29856;52.144;5.430;2023-02-23T14:44:49;40.00;;;20.02;;
44189;SDS011;29856;52.144;5.430;2023-02-23T14:47:19;45.63;;;20.10;;
44189;SDS011;29856;52.144;5.430;2023-02-23T14:49:50;42.40;;;21.27;;
44189;SDS011;29856;52.144;5.430;2023-02-23T14:52:39;45.03;;;21.35;;
44189;SDS011;29856;52.144;5.430;2023-02-23T14:57:46;49.10;;;23.20;;
44189;SDS011;29856;52.144;5.430;2023-02-23T15:00:18;55.35;;;24.90;;
44189;SDS011;29856;52.144;5.430;2023-02-23T15:02:54;55.40;;;26.45;;
44189;SDS011;29856;52.144;5.430;2023-02-23T15:05:32;52.70;;;25.17;;
44189;SDS011;29856;52.144;5.430;2023-02-23T15:08:10;58.22;;;26.13;;
44189;SDS011;29856;52.144;5.430;2023-02-23T15:10:43;61.33;;;26.10;;
44189;SDS011;29856;52.144;5.430;2023-02-23T15:13:28;58.92;;;27.08;;
44189;SDS011;29856;52.144;5.430;2023-02-23T15:15:57;62.95;;;25.88;;
44189;SDS011;29856;52.144;5.430;2023-02-23T15:18:31;33.13;;;13.90;;
44189;SDS011;29856;52.144;5.430;2023-02-23T15:21:19;24.25;;;8.57;;
44189;SDS011;29856;52.144;5.430;2023-02-23T15:23:47;23.73;;;8.45;;
44189;SDS011;29856;52.144;5.430;2023-02-23T15:26:25;32.70;;;6.95;;
44189;SDS011;29856;52.144;5.430;2023-02-23T15:31:29;34.28;;;6.43;;
44189;SDS011;29856;52.144;5.430;2023-02-23T15:33:55;29.23;;;6.00;;
44189;SDS011;29856;52.144;5.430;2023-02-23T15:36:27;39.72;;;8.27;;
44189;SDS011;29856;52.144;5.430;2023-02-23T15:38:56;42.15;;;6.93;;
44189;SDS011;29856;52.144;5.430;2023-02-23T15:41:27;38.70;;;7.47;;
44189;SDS011;29856;52.144;5.430;2023-02-23T15:43:54;28.27;;;5.10;;
44189;SDS011;29856;52.144;5.430;2023-02-23T15:46:45;48.88;;;7.38;;
44189;SDS011;29856;52.144;5.430;2023-02-23T15:49:17;39.03;;;7.35;;
44189;SDS011;29856;52.144;5.430;2023-02-23T15:51:44;47.45;;;7.03;;
44189;SDS011;29856;52.144;5.430;2023-02-23T15:54:26;33.83;;;5.85;;
44189;SDS011;29856;52.144;5.430;2023-02-23T15:57:06;25.50;;;4.47;;
44189;SDS011;29856;52.144;5.430;2023-02-23T15:59:41;19.95;;;4.65;;
44189;SDS011;29856;52.144;5.430;2023-02-23T16:02:12;23.38;;;4.00;;
44189;SDS011;29856;52.144;5.430;2023-02-23T16:04:39;26.90;;;4.88;;
44189;SDS011;29856;52.144;5.430;2023-02-23T16:07:15;28.77;;;6.18;;
44189;SDS011;29856;52.144;5.430;2023-02-23T16:09:50;27.63;;;5.20;;
44189;SDS011;29856;52.144;5.430;2023-02-23T16:12:20;26.23;;;5.70;;
44189;SDS011;29856;52.144;5.430;2023-02-23T16:14:52;30.25;;;5.93;;
44189;SDS011;29856;52.144;5.430;2023-02-23T16:17:23;36.55;;;6.38;;
44189;SDS011;29856;52.144;5.430;2023-02-23T16:19:51;44.90;;;7.35;;
44189;SDS011;29856;52.144;5.430;2023-02-23T16:22:22;34.25;;;6.28;;
44189;SDS011;29856;52.144;5.430;2023-02-23T16:24:52;28.02;;;5.03;;
44189;SDS011;29856;52.144;5.430;2023-02-23T16:27:23;45.45;;;6.63;;
44189;SDS011;29856;52.144;5.430;2023-02-23T16:29:54;38.85;;;6.70;;
44189;SDS011;29856;52.144;5.430;2023-02-23T16:32:32;35.00;;;6.82;;
44189;SDS011;29856;52.144;5.430;2023-02-23T16:35:01;29.77;;;5.70;;
44189;SDS011;29856;52.144;5.430;2023-02-23T16:37:33;38.50;;;6.13;;
44189;SDS011;29856;52.144;5.430;2023-02-23T16:40:14;42.50;;;6.57;;
44189;SDS011;29856;52.144;5.430;2023-02-23T16:42:40;33.72;;;6.32;;
44189;SDS011;29856;52.144;5.430;2023-02-23T16:45:05;36.70;;;7.00;;
44189;SDS011;29856;52.144;5.430;2023-02-23T16:47:41;34.60;;;6.43;;